Time;durP1;ratioP1;P1;durP2;ratioP2;P2;SDS_P1;SDS_P2;PMS_P1;PMS_P2;Temp;Humidity;BMP_temperature;BMP_pressure;BME280_temperature;BME280_humidity;BME280_pressure;Samples;Min_cycle;Max_cycle;Signal;HPM_P1;HPM_P2
2023/01/13 00:01:31;;;;;;;0.43;0.43;;;10.50;99.90;;;-141.84;67.65;19582.16;5053357;28;20716;-65
2023/01/13 00:04:00;;;;;;;0.57;0.50;;;10.60;99.90;;;-141.84;68.17;19549.63;5053583;28;20292;-64
2023/01/13 00:06:28;;;;;;;0.70;0.50;;;10.50;99.90;;;-141.84;67.94;19586.22;5053170;28;20233;-65
2023/01/13 00:08:56;;;;;;;0.50;0.47;;;10.50;99.90;;;-141.84;67.91;19561.84;5045981;28;20264;-65
2023/01/13 00:11:26;;;;;;;0.60;0.40;;;10.50;99.90;;;-141.84;68.68;19572.00;5052507;28;20220;-66
2023/01/13 00:13:54;;;;;;;0.43;0.40;;;10.40;99.90;;;-141.84;68.92;19553.72;5052913;28;20217;-65
2023/01/13 00:16:23;;;;;;;0.77;0.60;;;10.40;99.90;;;-141.84;69.23;19527.28;5052840;28;20676;-65
2023/01/13 00:18:51;;;;;;;0.50;0.50;;;10.30;99.90;;;-141.84;68.88;19521.19;5052721;28;20649;-64
2023/01/13 00:21:21;;;;;;;0.50;0.50;;;10.30;99.90;;;-141.84;69.01;19529.31;5052766;28;20233;-65
2023/01/13 00:23:52;;;;;;;1.17;0.50;;;10.30;99.90;;;-141.84;69.29;19529.31;5052457;28;20252;-63
2023/01/13 00:26:24;;;;;;;0.80;0.50;;;10.30;99.90;;;-141.84;68.24;19551.69;5051984;28;20224;-64
2023/01/13 00:28:57;;;;;;;1.37;0.50;;;10.30;99.90;;;-141.84;68.01;19567.94;5052003;28;20229;-65
2023/01/13 00:31:26;;;;;;;0.50;0.50;;;10.40;99.90;;;-141.84;68.31;19592.31;5051233;28;20601;-65
2023/01/13 00:33:57;;;;;;;0.50;0.50;;;10.40;99.90;;;-141.84;68.26;19557.78;5052902;28;20197;-65
2023/01/13 00:36:25;;;;;;;1.33;0.70;;;10.40;99.90;;;-141.84;69.07;19565.91;5052568;28;20239;-65
2023/01/13 00:38:53;;;;;;;0.60;0.60;;;10.40;99.90;;;-141.84;68.58;19543.53;5051307;28;20249;-65
2023/01/13 00:41:24;;;;;;;0.40;0.40;;;10.40;99.90;;;-141.84;69.22;19515.09;5052341;28;20221;-65
2023/01/13 00:43:53;;;;;;;0.60;0.50;;;10.30;99.90;;;-141.84;68.62;19535.41;5052476;28;20217;-66
2023/01/13 00:46:22;;;;;;;1.13;0.40;;;10.40;99.90;;;-141.84;68.97;19539.47;5052642;28;20603;-64
2023/01/13 00:48:51;;;;;;;1.47;0.60;;;10.30;99.90;;;-141.84;68.89;19567.94;5052639;28;20278;-65
2023/01/13 00:51:21;;;;;;;0.83;0.47;;;10.30;99.90;;;-141.84;69.08;19517.13;5052304;28;20236;-65
2023/01/13 00:53:51;;;;;;;0.60;0.50;;;10.30;99.90;;;-141.84;69.76;19509.00;5051531;28;20228;-66
2023/01/13 00:56:23;;;;;;;1.00;0.70;;;10.30;99.90;;;-141.84;68.98;19525.25;5052114;28;20312;-65
2023/01/13 00:59:10;;;;;;;0.50;0.40;;;10.30;99.90;;;-141.84;68.81;19551.69;5051255;28;20222;-65
2023/01/13 01:01:39;;;;;;;0.40;0.40;;;10.30;99.90;;;-141.84;68.69;19547.59;5052205;28;20884;-65
2023/01/13 01:04:07;;;;;;;0.50;0.40;;;10.30;99.90;;;-141.84;69.01;19525.25;5051798;28;20190;-64
2023/01/13 01:06:36;;;;;;;0.33;0.33;;;10.30;99.90;;;-141.84;69.53;19537.44;5052155;28;20300;-64
2023/01/13 01:09:05;;;;;;;0.50;0.50;;;10.20;99.90;;;-141.84;68.36;19545.56;5051188;28;20249;-64
2023/01/13 01:11:34;;;;;;;0.50;0.33;;;10.30;99.90;;;-141.84;67.92;19572.00;5051860;28;20632;-65
2023/01/13 01:14:04;;;;;;;0.33;0.33;;;10.40;99.90;;;-141.84;68.38;19531.34;5051799;28;20221;-65
2023/01/13 01:16:35;;;;;;;0.40;0.40;;;10.30;99.90;;;-141.84;67.73;19555.75;5051660;28;20228;-66
2023/01/13 01:19:03;;;;;;;0.60;0.40;;;10.40;99.90;;;-141.84;67.65;19610.59;5052551;28;20243;-65
2023/01/13 01:21:33;;;;;;;0.67;0.50;;;10.50;99.90;;;-141.84;67.54;19569.97;5051954;28;20220;-65
2023/01/13 01:24:04;;;;;;;0.40;0.40;;;10.50;99.90;;;-141.84;67.66;19594.34;5031142;28;20725;-66
2023/01/13 01:26:33;;;;;;;0.40;0.40;;;10.50;99.90;;;-141.84;67.26;19545.56;5031753;28;20229;-66
2023/01/13 01:29:01;;;;;;;0.40;0.40;;;10.50;99.90;;;-141.84;67.57;19555.75;5031493;28;20225;-65
2023/01/13 01:31:33;;;;;;;0.80;0.40;;;10.50;99.90;;;-141.84;67.98;19561.84;5031732;28;20228;-64
2023/01/13 01:34:02;;;;;;;0.40;0.40;;;10.50;99.90;;;-141.84;68.18;19549.63;5041489;28;20190;-66
2023/01/13 01:36:30;;;;;;;0.40;0.40;;;10.40;99.90;;;-141.84;67.74;19572.00;5051499;28;20229;-65
2023/01/13 01:39:00;;;;;;;1.00;0.50;;;10.50;99.90;;;-141.84;68.22;19567.94;5050968;28;20228;-65
2023/01/13 01:41:32;;;;;;;0.70;0.40;;;10.40;99.90;;;-141.84;68.85;19567.94;5051082;28;20700;-66
2023/01/13 01:44:07;;;;;;;0.97;0.40;;;10.40;99.90;;;-141.84;68.43;19553.72;5051204;28;20256;-65
2023/01/13 01:46:39;;;;;;;0.40;0.40;;;10.40;99.90;;;-141.84;68.55;19537.44;5051253;28;20221;-66
2023/01/13 01:49:16;;;;;;;0.40;0.40;;;10.40;99.90;;;-141.84;67.80;19572.00;5051183;28;20205;-66
2023/01/13 01:51:49;;;;;;;0.30;0.30;;;10.40;99.90;;;-141.84;68.16;19569.97;5051235;28;20276;-65
2023/01/13 01:54:26;;;;;;;0.67;0.40;;;10.40;99.90;;;-141.84;67.38;19598.41;5049914;28;20283;-65
2023/01/13 01:56:55;;;;;;;0.33;0.33;;;10.50;99.90;;;-141.84;67.94;19547.59;5050228;28;20263;-64
2023/01/13 01:59:26;;;;;;;0.87;0.50;;;10.40;99.90;;;-141.84;68.20;19553.72;5051068;28;20263;-64
2023/01/13 02:01:55;;;;;;;0.50;0.50;;;10.40;99.90;;;-141.84;67.70;19569.97;5051180;28;20223;-64
2023/01/13 02:04:30;;;;;;;0.30;0.30;;;10.50;99.90;;;-141.84;67.17;19580.13;5050667;28;20244;-66
2023/01/13 02:07:00;;;;;;;0.40;0.40;;;10.50;99.90;;;-141.84;67.53;19559.81;5047512;28;20207;-65
2023/01/13 02:09:30;;;;;;;0.70;0.40;;;10.60;99.90;;;-141.84;67.94;19567.94;5047980;28;20217;-66
2023/01/13 02:14:45;;;;;;;0.37;0.30;;;10.50;99.90;;;-141.84;67.32;19588.25;5055193;28;20731;-65
2023/01/13 02:17:44;;;;;;;0.37;0.37;;;10.50;99.90;;;-141.84;66.98;19590.28;5055112;28;20220;-65
2023/01/13 02:20:44;;;;;;;0.40;0.40;;;10.60;99.90;;;-141.84;67.36;19612.63;5055193;28;20317;-65
2023/01/13 02:27:54;;;;;;;0.50;0.50;;;10.60;99.90;;;-141.84;67.64;19563.88;5018681;28;20233;-65
2023/01/13 02:33:44;;;;;;;0.60;0.40;;;10.60;99.90;;;-141.84;67.63;19569.97;5021451;28;20313;-66
2023/01/13 02:36:26;;;;;;;0.40;0.40;;;10.60;99.90;;;-141.84;66.86;19610.59;5054563;28;20703;-65
2023/01/13 02:39:04;;;;;;;0.30;0.30;;;10.60;99.90;;;-141.84;67.19;19576.06;5053821;28;20235;-65
2023/01/13 02:44:35;;;;;;;0.50;0.50;;;10.60;99.90;;;-141.84;66.97;19643.13;5054558;28;20667;-64
2023/01/13 02:47:14;;;;;;;0.90;0.47;;;10.70;99.90;;;-141.84;67.47;19569.97;5054324;28;20296;-66
2023/01/13 02:49:49;;;;;;;0.93;0.40;;;10.60;99.90;;;-141.84;67.81;19594.34;5054723;28;20703;-66
2023/01/13 02:52:25;;;;;;;0.40;0.40;;;10.60;99.90;;;-141.84;67.31;19606.53;5054287;28;20189;-66
2023/01/13 02:55:00;;;;;;;0.50;0.40;;;10.60;99.90;;;-141.84;66.91;19596.38;5054522;28;20316;-66
2023/01/13 02:57:33;;;;;;;0.40;0.40;;;10.60;99.90;;;-141.84;66.86;19608.56;5054719;28;20259;-65
2023/01/13 03:00:05;;;;;;;0.50;0.30;;;10.70;99.90;;;-141.84;67.41;19572.00;5054424;28;20229;-64
2023/01/13 03:02:35;;;;;;;0.63;0.50;;;10.70;99.90;;;-141.84;67.36;19594.34;5053969;28;20240;-67
2023/01/13 03:05:05;;;;;;;0.53;0.40;;;10.60;99.90;;;-141.84;67.81;19559.81;5054070;28;20275;-65
2023/01/13 03:08:07;;;;;;;0.53;0.40;;;10.60;99.90;;;-141.84;67.33;19557.78;5053370;28;20283;-65
2023/01/13 03:10:53;;;;;;;0.73;0.47;;;10.70;99.90;;;-141.84;67.85;19565.91;5054364;28;20237;-65
2023/01/13 03:13:46;;;;;;;0.43;0.33;;;10.70;99.90;;;-141.84;67.70;19610.59;5054065;28;20209;-65
2023/01/13 03:16:28;;;;;;;0.97;0.30;;;10.70;99.90;;;-141.84;67.40;19602.47;5054413;28;20231;-65
2023/01/13 03:19:13;;;;;;;0.30;0.30;;;10.80;99.90;;;-141.84;67.41;19600.44;5054369;28;20794;-66
2023/01/13 03:21:51;;;;;;;1.00;0.40;;;10.70;99.90;;;-141.84;67.39;19578.09;5053398;28;20209;-66
2023/01/13 03:24:28;;;;;;;0.30;0.30;;;10.80;99.90;;;-141.84;67.25;19626.88;5053359;28;20237;-65
2023/01/13 03:27:04;;;;;;;0.87;0.47;;;10.90;99.90;;;-141.84;67.50;19608.56;5053646;28;20229;-65
2023/01/13 03:29:39;;;;;;;0.40;0.30;;;10.80;99.90;;;-141.84;67.68;19612.63;5053652;28;20239;-66
2023/01/13 03:32:16;;;;;;;0.70;0.40;;;10.80;99.90;;;-141.84;67.73;19578.09;5052861;28;20224;-65
2023/01/13 03:34:51;;;;;;;0.40;0.40;;;10.70;99.90;;;-141.84;68.15;19567.94;5053514;28;20221;-65
2023/01/13 03:37:25;;;;;;;0.50;0.50;;;10.70;99.90;;;-141.84;67.96;19578.09;5046342;28;20215;-66
2023/01/13 03:40:00;;;;;;;0.40;0.40;;;10.70;99.90;;;-141.84;68.31;19586.22;5043231;28;20193;-65
2023/01/13 03:42:33;;;;;;;0.57;0.40;;;10.80;99.90;;;-141.84;68.51;19596.38;5053095;28;20723;-64
2023/01/13 03:45:09;;;;;;;1.30;0.50;;;10.70;99.90;;;-141.84;68.74;19569.97;5053537;28;20225;-65
2023/01/13 03:47:46;;;;;;;0.40;0.30;;;10.60;99.90;;;-141.84;68.69;19578.09;5053401;28;20229;-65
2023/01/13 03:50:23;;;;;;;0.40;0.30;;;10.60;99.90;;;-141.84;68.69;19549.63;5053431;28;20240;-65
2023/01/13 03:52:58;;;;;;;0.40;0.40;;;10.60;99.90;;;-141.84;68.60;19586.22;5052334;28;20732;-64
2023/01/13 03:55:34;;;;;;;0.90;0.40;;;10.70;99.90;;;-141.84;69.02;19563.88;5053178;28;20708;-64
2023/01/13 03:58:09;;;;;;;0.60;0.40;;;10.70;99.90;;;-141.84;68.85;19578.09;5053881;28;20188;-66
2023/01/13 04:00:47;;;;;;;0.57;0.47;;;10.70;99.90;;;-141.84;69.15;19567.94;5053739;28;20255;-65
2023/01/13 04:03:23;;;;;;;0.40;0.40;;;10.60;99.90;;;-141.84;69.06;19596.38;5052979;28;20227;-65
2023/01/13 04:06:03;;;;;;;0.87;0.50;;;10.60;99.90;;;-141.84;68.83;19561.84;5053263;28;20229;-65
2023/01/13 04:08:36;;;;;;;0.50;0.40;;;10.70;99.90;;;-141.84;69.31;19572.00;5044436;28;20225;-65
2023/01/13 04:11:14;;;;;;;1.53;0.40;;;10.60;99.90;;;-141.84;69.38;19547.59;5052787;28;20231;-65
2023/01/13 04:13:48;;;;;;;1.67;0.40;;;10.60;99.90;;;-141.84;68.90;19594.34;5053048;28;20220;-65
2023/01/13 04:16:16;;;;;;;0.57;0.57;;;10.60;99.90;;;-141.84;69.12;19580.13;5053119;28;20190;-65
2023/01/13 04:18:44;;;;;;;0.30;0.30;;;10.60;99.90;;;-141.84;69.60;19549.63;5053481;28;20216;-65
2023/01/13 04:21:14;;;;;;;0.40;0.40;;;10.60;99.90;;;-141.84;69.67;19533.38;5051237;28;20221;-65
2023/01/13 04:23:42;;;;;;;1.23;0.50;;;10.50;99.90;;;-141.84;69.30;19527.28;5048811;28;20217;-65
2023/01/13 04:26:10;;;;;;;1.10;0.60;;;10.60;99.90;;;-141.84;69.72;19574.03;5052489;28;20700;-66
2023/01/13 04:28:39;;;;;;;1.43;0.60;;;10.50;99.90;;;-141.84;69.05;19574.03;5051888;28;20233;-66
2023/01/13 04:31:07;;;;;;;0.67;0.50;;;10.50;99.90;;;-141.84;69.58;19545.56;5051962;28;20396;-65
2023/01/13 04:33:36;;;;;;;0.50;0.50;;;10.50;99.90;;;-141.84;69.19;19541.50;5052548;28;20201;-65
2023/01/13 04:36:05;;;;;;;1.20;0.43;;;10.50;99.90;;;-141.84;69.24;19576.06;5052601;28;20240;-65
2023/01/13 04:38:35;;;;;;;1.70;0.77;;;10.50;99.90;;;-141.84;68.97;19557.78;5051174;28;20228;-66
2023/01/13 04:41:03;;;;;;;0.63;0.50;;;10.50;99.90;;;-141.84;69.27;19545.56;5052503;28;20227;-65
2023/01/13 04:43:31;;;;;;;0.73;0.40;;;10.50;99.90;;;-141.84;69.71;19569.97;5051927;28;20713;-65
2023/01/13 04:45:59;;;;;;;0.97;0.40;;;10.40;99.90;;;-141.84;69.36;19553.72;5053101;28;20571;-65
2023/01/13 04:48:27;;;;;;;1.63;0.50;;;10.50;99.90;;;-141.84;69.60;19559.81;5052061;28;20221;-64
2023/01/13 04:50:55;;;;;;;0.40;0.40;;;10.50;99.90;;;-141.84;69.40;19545.56;5051506;28;20233;-67
2023/01/13 04:53:23;;;;;;;1.27;0.40;;;10.50;99.90;;;-141.84;69.96;19509.00;5051363;28;20225;-65
2023/01/13 04:55:53;;;;;;;0.77;0.50;;;10.40;99.90;;;-141.84;69.58;19574.03;5052059;28;20236;-66
2023/01/13 04:58:22;;;;;;;0.67;0.40;;;10.50;99.90;;;-141.84;69.87;19574.03;5051898;28;20233;-65
2023/01/13 05:00:50;;;;;;;1.40;0.50;;;10.50;99.90;;;-141.84;69.89;19557.78;5052767;28;20201;-65
2023/01/13 05:03:18;;;;;;;0.47;0.40;;;10.40;99.90;;;-141.84;69.68;19569.97;5051792;28;20221;-66
2023/01/13 05:05:52;;;;;;;0.83;0.50;;;10.40;99.90;;;-141.84;69.59;19582.16;5052062;28;20233;-64
2023/01/13 05:08:20;;;;;;;0.50;0.50;;;10.50;99.90;;;-141.84;69.27;19563.88;5050490;28;20233;-65
2023/01/13 05:10:48;;;;;;;2.33;0.60;;;10.50;99.90;;;-141.84;69.41;19569.97;5051921;28;20399;-65
2023/01/13 05:18:44;;;;;;;0.67;0.47;;;10.50;99.90;;;-141.84;70.03;19553.72;5051470;28;20673;-67
2023/01/13 05:26:40;;;;;;;0.77;0.40;;;10.50;99.90;;;-141.84;69.91;19561.84;5051821;28;20240;-66
2023/01/13 05:29:10;;;;;;;0.40;0.40;;;10.50;99.90;;;-141.84;70.34;19533.38;5051631;28;20245;-66
2023/01/13 05:31:38;;;;;;;0.57;0.50;;;10.50;99.90;;;-141.84;69.97;19543.53;5051779;28;20221;-65
2023/01/13 05:34:06;;;;;;;0.70;0.37;;;10.40;99.90;;;-141.84;70.15;19551.69;5051459;28;20649;-64
2023/01/13 05:36:34;;;;;;;1.80;0.63;;;10.50;99.90;;;-141.84;70.11;19545.56;5051226;28;20201;-66
2023/01/13 05:39:04;;;;;;;0.50;0.50;;;10.50;99.90;;;-141.84;70.15;19555.75;5051326;28;20229;-65
2023/01/13 05:44:19;;;;;;;1.37;0.50;;;10.50;99.90;;;-141.84;70.42;19515.09;5051242;28;20723;-65
2023/01/13 05:46:47;;;;;;;1.60;0.70;;;10.40;99.90;;;-141.84;69.92;19525.25;5050773;28;20586;-64
2023/01/13 05:49:15;;;;;;;0.60;0.57;;;10.40;99.90;;;-141.84;69.27;19565.91;5050656;28;20657;-66
2023/01/13 05:51:43;;;;;;;1.03;0.60;;;10.50;99.90;;;-141.84;69.80;19549.63;5050926;28;20590;-64
2023/01/13 05:54:11;;;;;;;1.07;0.63;;;10.50;99.90;;;-141.84;70.29;19515.09;5050753;28;20248;-65
2023/01/13 05:56:39;;;;;;;1.47;0.53;;;10.40;99.90;;;-141.84;69.81;19586.22;5051119;28;20717;-65
2023/01/13 05:59:08;;;;;;;0.53;0.50;;;10.50;99.90;;;-141.84;70.01;19557.78;5050954;28;20221;-66
2023/01/13 06:01:37;;;;;;;0.63;0.60;;;10.50;99.90;;;-141.84;69.36;19574.03;5051071;28;20571;-65
2023/01/13 06:04:05;;;;;;;0.87;0.60;;;10.60;99.90;;;-141.84;69.52;19549.63;5050942;28;20217;-66
2023/01/13 06:06:34;;;;;;;0.50;0.50;;;10.50;99.90;;;-141.84;68.42;19596.38;5050733;28;20205;-66
2023/01/13 06:09:02;;;;;;;0.87;0.50;;;10.60;99.90;;;-141.84;68.77;19596.38;5044034;28;20233;-65
2023/01/13 06:11:30;;;;;;;1.03;0.70;;;10.70;99.90;;;-141.84;68.99;19561.84;5050762;28;20244;-65
2023/01/13 06:13:58;;;;;;;0.50;0.50;;;10.60;99.90;;;-141.84;69.36;19574.03;5051055;28;20224;-65
2023/01/13 06:16:26;;;;;;;0.50;0.47;;;10.60;99.90;;;-141.84;69.68;19549.63;5050799;28;20225;-67
2023/01/13 06:18:56;;;;;;;1.00;0.40;;;10.60;99.90;;;-141.84;69.73;19545.56;5051739;28;20197;-65
2023/01/13 06:21:24;;;;;;;0.30;0.30;;;10.50;99.90;;;-141.84;69.73;19565.91;5049039;28;20216;-66
2023/01/13 06:23:52;;;;;;;0.80;0.60;;;10.50;99.90;;;-141.84;69.57;19578.09;5050663;28;20747;-65
2023/01/13 06:26:24;;;;;;;0.70;0.60;;;10.60;99.90;;;-141.84;70.32;19572.00;5050637;28;20704;-65
2023/01/13 06:28:53;;;;;;;1.23;0.70;;;10.60;99.90;;;-141.84;71.66;19513.06;5050641;28;20225;-66
2023/01/13 06:31:21;;;;;;;1.13;0.70;;;10.50;99.90;;;-141.84;72.84;19531.34;5050070;28;20225;-65
2023/01/13 06:33:56;;;;;;;2.20;0.70;;;10.40;99.90;;;-141.84;72.57;19513.06;5051050;28;20300;-66
2023/01/13 06:36:32;;;;;;;0.70;0.60;;;10.40;99.90;;;-141.84;73.28;19523.22;5048666;28;20220;-65
2023/01/13 06:39:03;;;;;;;0.60;0.60;;;10.30;99.90;;;-141.84;73.74;19478.50;5048421;28;20243;-66
2023/01/13 06:44:21;;;;;;;2.10;1.30;;;10.20;99.90;;;-141.84;72.92;19511.03;5048043;28;20632;-65
2023/01/13 06:46:49;;;;;;;1.03;0.60;;;10.20;99.90;;;-141.84;72.76;19478.50;5050163;28;20723;-65
2023/01/13 06:49:17;;;;;;;0.80;0.40;;;10.20;99.90;;;-141.84;73.32;19498.84;5047904;28;20201;-65
2023/01/13 06:51:50;;;;;;;1.23;0.40;;;10.10;99.90;;;-141.84;76.37;19411.44;5050018;28;20206;-65
2023/01/13 06:54:18;;;;;;;1.23;0.40;;;9.80;99.90;;;-141.84;78.37;19383.00;5044624;28;20690;-64
2023/01/13 06:56:46;;;;;;;1.37;0.50;;;9.50;99.90;;;-141.84;79.96;19366.75;5051278;28;20217;-65
2023/01/13 06:59:14;;;;;;;0.80;0.40;;;9.20;99.90;;;-141.84;81.14;19368.78;5053439;28;20233;-63
2023/01/13 07:01:43;;;;;;;0.63;0.40;;;9.00;99.90;;;-141.84;82.19;19330.16;5053678;28;20321;-64
2023/01/13 07:04:12;;;;;;;1.07;0.47;;;8.80;99.90;;;-141.84;82.69;19334.22;5053229;28;20885;-65
2023/01/13 07:06:40;;;;;;;0.77;0.50;;;8.70;99.90;;;-141.84;83.34;19320.00;5053450;28;20194;-65
2023/01/13 07:09:10;;;;;;;1.30;0.83;;;8.70;99.90;;;-141.84;84.17;19299.69;5053494;28;20221;-65
2023/01/13 07:11:38;;;;;;;1.63;0.50;;;8.60;99.90;;;-141.84;84.94;19307.81;5053643;28;20240;-65
2023/01/13 07:16:53;;;;;;;1.00;0.60;;;8.50;99.90;;;-141.84;85.01;19261.06;5053651;28;20576;-64
2023/01/13 07:19:23;;;;;;;0.63;0.50;;;8.40;99.90;;;-141.84;85.72;19252.94;5054006;28;20297;-65
2023/01/13 07:21:51;;;;;;;2.60;0.60;;;8.30;99.90;;;-141.84;86.21;19236.69;5053778;28;20269;-64
2023/01/13 07:24:21;;;;;;;1.33;0.50;;;8.30;99.90;;;-141.84;86.86;19226.53;5053385;28;20221;-65
2023/01/13 07:26:51;;;;;;;2.33;0.50;;;8.30;99.90;;;-141.84;86.32;19224.50;5053686;28;20221;-64
2023/01/13 07:29:19;;;;;;;2.83;0.50;;;8.30;99.90;;;-141.84;86.48;19228.56;5053611;28;20739;-64
2023/01/13 07:31:48;;;;;;;2.47;0.70;;;8.30;99.90;;;-141.84;87.15;19224.50;5053583;28;20227;-64
2023/01/13 07:34:17;;;;;;;0.60;0.40;;;8.30;99.90;;;-141.84;87.48;19177.75;5053902;28;20292;-65
2023/01/13 07:36:45;;;;;;;0.50;0.50;;;8.30;99.90;;;-141.84;87.39;19210.28;5051662;28;20224;-64
2023/01/13 07:39:13;;;;;;;0.63;0.63;;;8.30;99.90;;;-141.84;88.08;19192.00;5048062;28;20236;-65
2023/01/13 07:44:29;;;;;;;1.50;0.70;;;8.30;99.90;;;-141.84;88.59;19171.66;5053523;28;20236;-64
2023/01/13 07:46:57;;;;;;;0.93;0.80;;;8.30;99.90;;;-141.84;88.60;19200.13;5053096;28;20712;-64
2023/01/13 07:49:25;;;;;;;1.20;0.70;;;8.30;99.90;;;-141.84;89.11;19171.66;5053021;28;20229;-64
2023/01/13 07:51:53;;;;;;;1.43;0.80;;;8.30;99.90;;;-141.84;89.66;19155.41;5053388;28;20198;-64
2023/01/13 07:54:21;;;;;;;1.13;0.80;;;8.30;99.90;;;-141.84;88.52;19153.38;5052793;28;20241;-64
2023/01/13 07:57:07;;;;;;;0.97;0.67;;;8.30;99.90;;;-141.84;88.54;19171.66;5051899;28;20217;-64
2023/01/13 07:59:36;;;;;;;1.03;0.70;;;8.30;99.90;;;-141.84;87.69;19143.22;5033118;28;20226;-66
2023/01/13 08:02:04;;;;;;;0.57;0.57;;;8.30;99.90;;;-141.84;86.03;19171.66;5033219;28;20225;-63
2023/01/13 08:04:33;;;;;;;1.40;0.50;;;8.30;99.90;;;-141.84;82.69;19200.13;5047310;28;20251;-64
2023/01/13 08:07:02;;;;;;;1.23;0.70;;;8.30;99.90;;;-141.84;82.82;19179.78;5049309;28;20228;-64
2023/01/13 08:09:30;;;;;;;1.37;0.70;;;8.30;99.90;;;-141.84;83.19;19167.59;5049732;28;20223;-65
2023/01/13 08:14:42;;;;;;;1.00;0.80;;;8.20;99.90;;;-141.84;83.38;19129.00;5052648;28;20232;-64
2023/01/13 08:17:11;;;;;;;1.90;0.53;;;8.00;99.90;;;-141.84;83.55;19126.97;5052651;28;20225;-65
2023/01/13 08:19:39;;;;;;;1.87;0.70;;;8.00;99.90;;;-141.84;82.72;19159.47;5052568;28;20247;-64
2023/01/13 08:22:07;;;;;;;0.60;0.60;;;8.00;99.90;;;-141.84;82.84;19151.34;5051866;28;20204;-63
2023/01/13 08:24:35;;;;;;;1.30;0.63;;;8.00;99.90;;;-141.84;83.10;19078.19;5052745;28;20200;-64
2023/01/13 08:27:03;;;;;;;0.87;0.80;;;8.00;99.90;;;-141.84;82.95;19153.38;5052230;28;20217;-64
2023/01/13 08:29:32;;;;;;;1.77;0.80;;;8.00;99.90;;;-141.84;82.45;19183.84;5051956;28;20236;-65
2023/01/13 08:32:01;;;;;;;1.30;0.50;;;8.10;99.90;;;-141.84;82.23;19153.38;5051990;28;20225;-64
2023/01/13 08:34:29;;;;;;;0.67;0.40;;;8.00;99.90;;;-141.84;82.32;19161.50;5051804;28;20221;-64
2023/01/13 08:36:58;;;;;;;1.30;0.50;;;8.10;99.90;;;-141.84;82.88;19179.78;5051814;28;20900;-64
2023/01/13 08:39:26;;;;;;;0.93;0.60;;;8.00;99.90;;;-141.84;82.76;19143.22;5051580;28;20260;-65
2023/01/13 08:41:57;;;;;;;2.13;0.60;;;8.10;99.90;;;-141.84;81.91;19151.34;5051891;28;20720;-64
2023/01/13 08:44:28;;;;;;;1.00;0.60;;;8.10;99.90;;;-141.84;82.43;19192.00;5052244;28;20276;-64
2023/01/13 08:46:57;;;;;;;0.50;0.50;;;8.00;99.90;;;-141.84;82.28;19183.84;5052291;28;20217;-65
2023/01/13 08:49:26;;;;;;;0.43;0.40;;;8.00;99.90;;;-141.84;81.05;19159.47;5052068;28;20225;-64
2023/01/13 08:51:55;;;;;;;1.90;0.53;;;8.10;99.90;;;-141.84;81.04;19139.16;5052549;28;20205;-64
2023/01/13 08:54:23;;;;;;;1.83;0.60;;;8.00;99.90;;;-141.84;80.63;19179.78;5051696;28;20260;-65
2023/01/13 08:56:51;;;;;;;0.77;0.50;;;8.10;99.90;;;-141.84;79.72;19185.88;5052059;28;20259;-65
2023/01/13 08:59:20;;;;;;;1.80;0.93;;;8.10;99.90;;;-141.84;80.22;19181.81;5051753;28;20252;-65
2023/01/13 09:01:48;;;;;;;0.60;0.53;;;8.10;99.90;;;-141.84;79.36;19198.09;5051671;28;20228;-65
2023/01/13 09:04:21;;;;;;;1.33;0.60;;;8.10;99.90;;;-141.84;78.62;19212.31;5050195;28;20223;-64
2023/01/13 09:06:51;;;;;;;1.60;0.70;;;8.20;99.90;;;-141.84;78.90;19230.59;5051924;28;20186;-66
2023/01/13 09:09:20;;;;;;;2.27;0.90;;;8.20;99.90;;;-141.84;79.80;19204.19;5051717;28;20230;-64
2023/01/13 09:14:39;;;;;;;0.40;0.40;;;8.20;99.90;;;-141.84;78.78;19200.13;5051136;28;20278;-65
2023/01/13 09:17:07;;;;;;;1.00;0.60;;;8.20;99.90;;;-141.84;79.52;19196.06;5051608;28;20593;-64
2023/01/13 09:19:36;;;;;;;2.00;1.20;;;8.20;99.90;;;-141.84;78.75;19212.31;5038447;28;20229;-64
2023/01/13 09:22:05;;;;;;;1.97;0.83;;;8.20;99.90;;;-141.84;78.08;19242.78;5030937;28;20579;-63
2023/01/13 09:24:34;;;;;;;3.27;0.90;;;8.30;99.90;;;-141.84;76.81;19275.31;5031992;28;20596;-64
2023/01/13 09:27:02;;;;;;;1.37;0.60;;;8.40;99.90;;;-141.84;76.65;19248.88;5031530;28;20234;-64
2023/01/13 09:29:30;;;;;;;1.57;0.70;;;8.40;99.90;;;-141.84;76.82;19236.69;5031474;28;20233;-63
2023/01/13 09:31:58;;;;;;;1.07;0.70;;;8.40;99.90;;;-141.84;75.73;19291.56;5031509;28;20226;-64
2023/01/13 09:37:22;;;;;;;0.43;0.43;;;8.40;99.90;;;-141.84;76.67;19238.72;5007043;28;20225;-65
2023/01/13 09:39:51;;;;;;;1.63;0.63;;;8.40;99.90;;;-141.84;76.92;19254.97;5051376;28;20213;-65
2023/01/13 09:45:23;;;;;;;1.70;0.70;;;8.30;99.90;;;-141.84;76.43;19275.31;5051248;28;20784;-65
2023/01/13 09:47:59;;;;;;;1.10;0.80;;;8.30;99.90;;;-141.84;76.83;19218.41;5050878;28;20221;-64
2023/01/13 09:50:57;;;;;;;2.57;0.90;;;8.30;99.90;;;-141.84;76.49;19277.34;5031210;28;20232;-65
2023/01/13 09:53:33;;;;;;;1.20;0.77;;;8.30;99.90;;;-141.84;77.27;19232.63;5031152;28;20279;-65
2023/01/13 09:56:02;;;;;;;0.80;0.60;;;8.30;99.90;;;-141.84;77.63;19238.72;5036585;28;20280;-65
2023/01/13 09:58:30;;;;;;;1.87;1.00;;;8.30;99.90;;;-141.84;75.49;19275.31;5050883;28;20225;-65
2023/01/13 10:01:14;;;;;;;1.23;0.90;;;8.40;99.90;;;-141.84;75.84;19273.28;5051626;28;20207;-65
2023/01/13 10:03:42;;;;;;;1.80;0.90;;;8.40;99.90;;;-141.84;75.64;19271.25;5050833;28;20209;-64
2023/01/13 10:06:17;;;;;;;1.17;0.70;;;8.50;99.90;;;-141.84;75.26;19287.50;5050960;28;20221;-64
2023/01/13 10:08:49;;;;;;;1.03;0.70;;;8.50;99.90;;;-141.84;75.78;19267.16;5050460;28;20731;-65
2023/01/13 10:14:18;;;;;;;2.93;1.30;;;8.50;99.90;;;-141.84;75.63;19305.78;5050443;28;20411;-64
2023/01/13 10:17:05;;;;;;;1.30;0.70;;;8.60;99.90;;;-141.84;74.10;19326.09;5050970;28;20232;-65
2023/01/13 10:19:44;;;;;;;0.70;0.57;;;8.70;99.90;;;-141.84;73.49;19342.34;5050797;28;20225;-64
2023/01/13 10:22:45;;;;;;;1.47;0.50;;;8.70;99.90;;;-141.84;74.09;19344.41;5050746;28;20186;-64
2023/01/13 10:25:30;;;;;;;1.00;0.80;;;8.70;99.90;;;-141.84;74.42;19336.25;5050136;28;20551;-64
2023/01/13 10:28:10;;;;;;;2.10;0.80;;;8.70;99.90;;;-141.84;74.67;19311.88;5051196;28;20185;-65
2023/01/13 10:30:41;;;;;;;1.03;0.50;;;8.70;99.90;;;-141.84;72.80;19385.03;5050634;28;20205;-64
2023/01/13 10:33:16;;;;;;;3.63;1.27;;;8.80;99.90;;;-141.84;72.47;19354.56;5054309;28;20221;-66
2023/01/13 10:35:55;;;;;;;1.30;0.60;;;8.90;99.90;;;-141.84;70.77;19387.06;5054637;28;20279;-65
2023/01/13 10:38:27;;;;;;;0.80;0.50;;;9.00;99.90;;;-141.84;70.68;19395.19;5054448;28;20230;-66
2023/01/13 10:41:00;;;;;;;1.50;0.73;;;9.10;99.90;;;-141.84;69.59;19403.31;5054541;28;20229;-66
2023/01/13 10:43:30;;;;;;;1.60;0.67;;;9.20;99.90;;;-141.84;70.51;19378.94;5053275;28;20232;-65
2023/01/13 10:46:03;;;;;;;1.90;0.70;;;9.10;99.90;;;-141.84;70.67;19413.47;5039172;28;20206;-65
2023/01/13 10:48:37;;;;;;;1.50;1.10;;;9.00;99.90;;;-141.84;69.43;19383.00;5034990;28;20210;-66
2023/01/13 10:51:20;;;;;;;2.00;0.83;;;9.10;99.90;;;-141.84;69.03;19374.88;5034481;28;20221;-66
2023/01/13 10:54:00;;;;;;;1.27;1.07;;;9.10;99.90;;;-141.84;69.16;19370.81;5052520;28;20225;-65
2023/01/13 10:56:33;;;;;;;1.53;1.43;;;8.90;99.90;;;-141.84;69.06;19391.13;5047980;28;20809;-64
2023/01/13 10:59:17;;;;;;;2.13;1.57;;;8.90;99.90;;;-141.84;68.58;19354.56;5049012;28;20213;-67
2023/01/13 11:02:00;;;;;;;3.57;0.93;;;9.00;99.90;;;-141.84;68.33;19387.06;5051883;28;20225;-64
2023/01/13 11:04:38;;;;;;;1.60;0.80;;;9.00;99.90;;;-141.84;68.86;19376.91;5036003;28;20230;-65
2023/01/13 11:07:24;;;;;;;1.50;1.00;;;9.10;99.90;;;-141.84;68.31;19372.84;5053857;28;20581;-64
2023/01/13 11:10:13;;;;;;;1.37;0.80;;;9.10;99.90;;;-141.84;68.31;19399.25;5046205;28;20225;-64
2023/01/13 11:12:52;;;;;;;1.47;1.10;;;9.20;99.90;;;-141.84;67.68;19419.59;5039592;28;20240;-65
2023/01/13 11:15:33;;;;;;;2.60;1.10;;;9.20;99.90;;;-141.84;68.78;19374.88;5053970;28;20221;-65
2023/01/13 11:18:13;;;;;;;2.10;1.40;;;9.10;99.90;;;-141.84;68.14;19443.97;5053749;28;20739;-64